createdAt,value
2022-12-25T00:04:47.566Z,100659.00
2022-12-25T00:14:47.490Z,100669.00
2022-12-25T00:24:47.480Z,100669.00
2022-12-25T00:34:47.552Z,100671.00
2022-12-25T00:44:47.536Z,100667.00
2022-12-25T00:54:47.598Z,100669.00
2022-12-25T01:04:47.547Z,100667.00
2022-12-25T01:14:47.624Z,100669.00
2022-12-25T01:24:47.525Z,100673.00
2022-12-25T01:34:53.733Z,100675.00
2022-12-25T01:44:49.778Z,100671.00
2022-12-25T01:54:50.241Z,100661.00
2022-12-25T02:04:50.641Z,100659.00
2022-12-25T02:14:50.610Z,100665.00
2022-12-25T02:24:50.814Z,100675.00
2022-12-25T02:34:50.625Z,100677.00
2022-12-25T02:45:22.289Z,100673.00
2022-12-25T02:55:41.801Z,100675.00
2022-12-25T03:05:59.948Z,100671.00
2022-12-25T03:16:20.152Z,100665.00
2022-12-25T03:26:39.082Z,100655.00
2022-12-25T03:36:38.828Z,100651.00
2022-12-25T03:46:57.048Z,100637.00
2022-12-25T03:57:15.194Z,100622.00
2022-12-25T04:07:34.081Z,100602.00
2022-12-25T04:17:51.897Z,100614.00
2022-12-25T04:28:10.177Z,100618.00
2022-12-25T04:38:09.802Z,100620.00
2022-12-25T04:48:09.833Z,100618.00
2022-12-25T04:58:09.909Z,100610.00
2022-12-25T05:08:11.042Z,100604.00
2022-12-25T05:18:10.973Z,100606.00
2022-12-25T05:28:10.895Z,100598.00
2022-12-25T05:38:10.919Z,100577.00
2022-12-25T05:48:11.031Z,100565.00
2022-12-25T05:58:10.972Z,100563.00
2022-12-25T06:08:10.929Z,100563.00
2022-12-25T06:18:11.033Z,100535.00
2022-12-25T06:28:10.984Z,100529.00
2022-12-25T06:38:13.999Z,100519.00
2022-12-25T06:48:14.211Z,100504.00
2022-12-25T06:58:13.944Z,100490.00
2022-12-25T07:08:14.120Z,100490.00
2022-12-25T07:18:14.120Z,100474.00
2022-12-25T07:28:14.077Z,100449.00
2022-12-25T07:38:14.490Z,100439.00
2022-12-25T07:48:16.889Z,100429.00
2022-12-25T07:58:21.445Z,100423.00
2022-12-25T08:08:19.147Z,100437.00
2022-12-25T08:18:21.267Z,100431.00
2022-12-25T08:28:21.133Z,100435.00
2022-12-25T08:38:21.164Z,100404.00
2022-12-25T08:48:21.245Z,100423.00
2022-12-25T08:58:21.136Z,100455.00
2022-12-25T09:08:21.352Z,100439.00
2022-12-25T09:18:21.240Z,100427.00
2022-12-25T09:28:21.186Z,100429.00
2022-12-25T09:38:21.255Z,100437.00
2022-12-25T09:48:21.226Z,100453.00
2022-12-25T09:58:21.187Z,100462.00
2022-12-25T10:08:21.283Z,100453.00
2022-12-25T10:18:21.257Z,100443.00
2022-12-25T10:28:21.253Z,100417.00
2022-12-25T10:38:21.276Z,100408.00
2022-12-25T10:48:21.314Z,100384.00
2022-12-25T10:58:21.269Z,100374.00
2022-12-25T11:08:21.510Z,100370.00
2022-12-25T11:18:21.352Z,100337.00
2022-12-25T11:28:21.344Z,100311.00
2022-12-25T11:38:21.427Z,100272.00
2022-12-25T11:48:21.416Z,100244.00
2022-12-25T11:58:21.366Z,100223.00
2022-12-25T12:08:21.423Z,100203.00
2022-12-25T12:18:21.426Z,100193.00
2022-12-25T12:28:21.415Z,100185.00
2022-12-25T12:38:21.419Z,100184.00
2022-12-25T12:48:21.578Z,100180.00
2022-12-25T12:58:21.492Z,100158.00
2022-12-25T13:08:21.462Z,100154.00
2022-12-25T13:18:21.496Z,100140.00
2022-12-25T13:28:21.498Z,100131.00
2022-12-25T13:38:21.482Z,100127.00
2022-12-25T13:48:23.040Z,100127.00
2022-12-25T13:58:23.483Z,100125.00
2022-12-25T14:08:23.800Z,100115.00
2022-12-25T14:18:23.868Z,100123.00
2022-12-25T14:28:24.207Z,100121.00
2022-12-25T14:38:24.620Z,100117.00
2022-12-25T14:48:25.669Z,100117.00
2022-12-25T14:58:25.650Z,100121.00
2022-12-25T15:08:25.719Z,100109.00
2022-12-25T15:18:25.668Z,100107.00
2022-12-25T15:28:25.630Z,100101.00
2022-12-25T15:38:25.631Z,100087.00
2022-12-25T15:48:28.901Z,100084.00
2022-12-25T15:58:28.771Z,100078.00
2022-12-25T16:08:28.754Z,100066.00
2022-12-25T16:18:29.842Z,100064.00
2022-12-25T16:28:29.726Z,100060.00
2022-12-25T16:38:31.188Z,100052.00
2022-12-25T16:48:31.778Z,100060.00
2022-12-25T16:58:31.729Z,100062.00
2022-12-25T17:08:31.733Z,100060.00
2022-12-25T17:18:31.789Z,100058.00
2022-12-25T17:28:31.726Z,100060.00
2022-12-25T17:38:32.105Z,100064.00
2022-12-25T17:48:31.814Z,100068.00
2022-12-25T17:58:31.791Z,100066.00
2022-12-25T18:08:38.700Z,100068.00
2022-12-25T18:18:34.638Z,100062.00
2022-12-25T18:28:34.869Z,100052.00
2022-12-25T18:38:35.191Z,100054.00
2022-12-25T18:48:34.870Z,100054.00
2022-12-25T18:58:35.607Z,100056.00
2022-12-25T19:08:35.945Z,100056.00
2022-12-25T19:18:35.893Z,100062.00
2022-12-25T19:28:36.864Z,100062.00
2022-12-25T19:38:36.982Z,100072.00
2022-12-25T19:48:37.233Z,100082.00
2022-12-25T19:58:37.203Z,100087.00
2022-12-25T20:08:37.805Z,100086.00
2022-12-25T20:18:38.127Z,100080.00
2022-12-25T20:28:38.055Z,100082.00
2022-12-25T20:38:38.235Z,100078.00
2022-12-25T20:48:38.091Z,100078.00
2022-12-25T20:58:38.056Z,100080.00
2022-12-25T21:08:38.235Z,100080.00
2022-12-25T21:18:38.200Z,100084.00
2022-12-25T21:28:38.283Z,100084.00
2022-12-25T21:38:38.135Z,100084.00
2022-12-25T21:48:38.098Z,100089.00
2022-12-25T21:58:38.229Z,100091.00
2022-12-25T22:08:38.163Z,100099.00
2022-12-25T22:18:56.423Z,100099.00
2022-12-25T22:28:56.277Z,100117.00
2022-12-25T22:38:56.174Z,100144.00
2022-12-25T22:48:56.248Z,100156.00
2022-12-25T22:58:56.269Z,100168.00
2022-12-25T23:08:56.587Z,100174.00
2022-12-25T23:19:14.544Z,100185.00
2022-12-25T23:29:42.869Z,100187.00
2022-12-25T23:39:43.340Z,100185.00
2022-12-25T23:49:43.618Z,100178.00
2022-12-25T23:59:43.402Z,100180.00
